Terminal Aerodrome Forecast
Issued by NWS Cleveland, OH

Home | Current Version | Previous Version | Graphics & Text | Print | Product List | Glossary Off
Versions: 1 2 3 4 5 6 7 8 9 10 11 12 13 14 15 16 17 18 19 20

000
FTUS41 KCLE 251100
TAFYNG
TAF
KYNG 251140Z 2512/2612 24015G25KT P6SM OVC015
      TEMPO 2512/2514 6SM -SHRASN
     FM252200 23010KT P6SM OVC025
     FM260600 22010KT P6SM BKN250=

USA.gov is the U.S. government's official web portal to all federal, state and local government web resources and services.